Time;durP1;ratioP1;P1;durP2;ratioP2;P2;SDS_P1;SDS_P2;PMS_P1;PMS_P2;Temp;Humidity;BMP_temperature;BMP_pressure;BME280_temperature;BME280_humidity;BME280_pressure;Samples;Min_cycle;Max_cycle;Signal;HPM_P1;HPM_P2
2020/12/10 00:00:15;;;;;;;3.15;1.60;;;102.40;2124.80;;;;;;5100679;28;20437;-73
2020/12/10 00:02:42;;;;;;;7.32;1.75;;;102.40;2176.00;;;;;;5100555;28;20024;-73
2020/12/10 00:05:09;;;;;;;7.82;4.45;;;102.40;2227.20;;;;;;5100469;28;20063;-74
2020/12/10 00:07:36;;;;;;;9.23;3.78;;;102.70;2227.20;;;;;;5100669;28;20430;-73
2020/12/10 00:10:04;;;;;;;22.63;9.82;;;103.10;2227.20;;;;;;5099882;28;20433;-73
2020/12/10 00:12:30;;;;;;;7.25;3.17;;;128.00;2227.20;;;;;;5100347;28;20055;-73
2020/12/10 00:14:56;;;;;;;4.68;2.85;;;128.00;2176.00;;;;;;5100538;28;20071;-73
2020/12/10 00:17:28;;;;;;;10.43;5.10;;;128.10;2201.60;;;;;;5099413;28;20023;-73
2020/12/10 00:19:55;;;;;;;5.13;2.78;;;128.30;2176.00;;;;;;5099901;28;20024;-73
2020/12/10 00:22:22;;;;;;;6.97;4.00;;;128.60;2176.00;;;;;;5100161;28;20357;-73
2020/12/10 00:24:49;;;;;;;7.70;3.67;;;128.80;2150.40;;;;;;5099852;28;20078;-73
2020/12/10 00:27:23;;;;;;;6.32;3.28;;;153.60;2150.40;;;;;;5100309;28;20369;-74
2020/12/10 00:29:49;;;;;;;4.68;2.22;;;153.70;2099.20;;;;;;5100068;28;20089;-73
2020/12/10 00:32:18;;;;;;;6.32;2.17;;;153.80;2124.80;;;;;;5099700;28;20422;-73
2020/12/10 00:34:45;;;;;;;4.97;2.10;;;128.90;2073.60;;;;;;5100044;28;20064;-73
2020/12/10 00:37:12;;;;;;;4.68;2.38;;;128.40;2048.00;;;;;;5099858;28;20028;-74
2020/12/10 00:39:38;;;;;;;3.65;2.03;;;128.50;2099.20;;;;;;5099586;28;20056;-74
2020/12/10 00:42:05;;;;;;;3.42;2.03;;;128.30;2099.20;;;;;;5099572;28;20048;-73
2020/12/10 00:44:31;;;;;;;4.18;1.90;;;128.50;2176.00;;;;;;5099225;28;20020;-73
2020/12/10 00:46:58;;;;;;;8.88;3.17;;;128.60;2124.80;;;;;;5099683;28;20035;-73
2020/12/10 00:49:24;;;;;;;7.72;3.33;;;128.40;2099.20;;;;;;5099612;28;20161;-73
2020/12/10 00:51:51;;;;;;;10.23;2.85;;;128.20;2099.20;;;;;;5098908;28;20039;-73
2020/12/10 00:54:17;;;;;;;8.23;2.70;;;103.30;2073.60;;;;;;5099455;28;20077;-73
2020/12/10 00:56:43;;;;;;;8.13;2.53;;;103.30;2099.20;;;;;;5099485;28;20103;-73
2020/12/10 00:59:09;;;;;;;9.18;4.00;;;103.20;2099.20;;;;;;5098934;28;20311;-74
2020/12/10 01:01:35;;;;;;;7.72;2.70;;;103.10;2124.80;;;;;;5099391;28;20035;-74
2020/12/10 01:04:01;;;;;;;5.32;2.58;;;103.20;2227.20;;;;;;5099122;28;20543;-74
2020/12/10 01:06:27;;;;;;;7.00;3.38;;;128.30;2201.60;;;;;;5098451;28;20370;-73
2020/12/10 01:08:53;;;;;;;4.22;2.22;;;128.30;2150.40;;;;;;5099277;28;20020;-73
2020/12/10 01:11:28;;;;;;;5.82;2.55;;;128.70;2201.60;;;;;;5099172;28;20024;-74
2020/12/10 01:13:55;;;;;;;6.50;3.67;;;128.90;2176.00;;;;;;5098896;28;20114;-73
2020/12/10 01:16:22;;;;;;;7.00;2.28;;;153.70;2176.00;;;;;;5099096;28;20415;-73
2020/12/10 01:18:47;;;;;;;4.18;1.80;;;154.00;2150.40;;;;;;5099064;28;20032;-73
2020/12/10 01:21:13;;;;;;;2.28;1.60;;;154.20;2124.80;;;;;;5098755;28;20460;-73
2020/12/10 01:23:39;;;;;;;5.10;2.80;;;154.30;2099.20;;;;;;5098976;28;20032;-74
2020/12/10 01:26:10;;;;;;;6.78;2.90;;;154.40;2099.20;;;;;;5098589;28;20051;-73
2020/12/10 01:28:35;;;;;;;7.68;4.35;;;154.50;2099.20;;;;;;5098670;28;20024;-73
2020/12/10 01:31:01;;;;;;;6.68;2.78;;;179.20;2073.60;;;;;;5098845;28;20444;-73
2020/12/10 01:33:27;;;;;;;3.70;2.28;;;179.30;2073.60;;;;;;5098722;28;20035;-74
2020/12/10 01:35:53;;;;;;;6.28;2.40;;;179.30;2073.60;;;;;;5098174;28;20073;-73
2020/12/10 01:38:18;;;;;;;9.23;5.05;;;179.30;2073.60;;;;;;5098682;28;20028;-73
2020/12/10 01:40:52;;;;;;;4.18;2.20;;;179.50;2099.20;;;;;;5098190;28;20428;-73
2020/12/10 01:43:18;;;;;;;10.43;3.05;;;179.60;2073.60;;;;;;5098946;28;20027;-73
2020/12/10 01:45:44;;;;;;;8.88;4.68;;;179.60;2073.60;;;;;;5098524;28;20036;-73
2020/12/10 01:48:10;;;;;;;11.52;6.38;;;179.60;2073.60;;;;;;5098085;28;20024;-73
2020/12/10 01:50:36;;;;;;;15.82;10.82;;;179.70;2073.60;;;;;;5098509;28;20032;-73
2020/12/10 01:53:03;;;;;;;5.65;2.90;;;179.80;2073.60;;;;;;5098405;28;20024;-73
2020/12/10 01:55:29;;;;;;;5.55;3.15;;;179.90;2073.60;;;;;;5098050;28;20089;-73
2020/12/10 01:57:55;;;;;;;4.68;2.50;;;179.90;2048.00;;;;;;5098288;28;20110;-74
2020/12/10 02:00:20;;;;;;;4.45;2.90;;;180.00;2048.00;;;;;;5098275;28;20495;-74
2020/12/10 02:02:53;;;;;;;3.85;2.40;;;180.00;2048.00;;;;;;5097491;28;20112;-73
2020/12/10 02:05:19;;;;;;;5.53;3.20;;;180.10;2048.00;;;;;;5098004;28;20513;-73
2020/12/10 02:07:45;;;;;;;5.25;2.65;;;180.10;2022.40;;;;;;5097878;28;20066;-73
2020/12/10 02:10:10;;;;;;;4.65;2.38;;;180.00;2048.00;;;;;;5097257;28;20415;-73
2020/12/10 02:12:39;;;;;;;3.63;2.00;;;180.00;2048.00;;;;;;5098380;28;20099;-73
2020/12/10 02:15:05;;;;;;;4.18;2.08;;;180.00;2048.00;;;;;;5097681;28;20024;-73
2020/12/10 02:17:31;;;;;;;3.03;1.77;;;180.00;2048.00;;;;;;5097676;28;20317;-74
2020/12/10 02:19:57;;;;;;;5.47;2.80;;;180.00;2048.00;;;;;;5097949;28;20068;-73
2020/12/10 02:22:22;;;;;;;7.05;2.83;;;180.00;2048.00;;;;;;5097523;28;20028;-73
2020/12/10 02:24:48;;;;;;;6.55;2.42;;;180.10;2048.00;;;;;;5097868;28;20115;-74
2020/12/10 02:27:14;;;;;;;5.15;2.90;;;180.10;2022.40;;;;;;5097519;28;20027;-73
2020/12/10 02:29:40;;;;;;;4.63;1.77;;;180.10;2022.40;;;;;;5096982;28;20023;-73
2020/12/10 02:32:06;;;;;;;3.35;1.70;;;180.00;2022.40;;;;;;5097723;28;20028;-73
2020/12/10 02:34:32;;;;;;;3.00;1.92;;;180.00;2022.40;;;;;;5097298;28;20479;-73
2020/12/10 02:36:58;;;;;;;4.80;2.75;;;180.00;2022.40;;;;;;5097399;28;20024;-74
2020/12/10 02:39:24;;;;;;;5.03;2.13;;;180.00;2048.00;;;;;;5097700;28;20023;-74
2020/12/10 02:41:50;;;;;;;5.00;2.83;;;180.10;2048.00;;;;;;5097766;28;20056;-73
2020/12/10 02:44:16;;;;;;;3.10;1.80;;;180.10;2048.00;;;;;;5097056;28;20055;-74
2020/12/10 02:46:41;;;;;;;7.10;2.33;;;204.80;2022.40;;;;;;5097243;28;20072;-73
2020/12/10 02:49:07;;;;;;;6.55;2.47;;;204.90;2022.40;;;;;;5097807;28;20031;-73
2020/12/10 02:51:33;;;;;;;7.35;3.00;;;204.90;2022.40;;;;;;5097160;28;20418;-73
2020/12/10 02:53:59;;;;;;;7.85;3.53;;;204.90;1996.80;;;;;;5097627;28;20376;-73
2020/12/10 02:56:25;;;;;;;7.10;3.97;;;180.00;1996.80;;;;;;5097096;28;20031;-72
2020/12/10 02:58:50;;;;;;;11.35;5.28;;;180.00;1971.20;;;;;;5097081;28;20339;-73
2020/12/10 03:01:16;;;;;;;7.40;3.75;;;179.80;1996.80;;;;;;5097311;28;20020;-73
2020/12/10 03:03:44;;;;;;;3.50;1.95;;;179.40;1971.20;;;;;;5097615;28;20318;-73
2020/12/10 03:06:11;;;;;;;4.10;2.38;;;154.50;1971.20;;;;;;5096707;28;20165;-73
2020/12/10 03:08:39;;;;;;;3.63;1.95;;;154.20;1996.80;;;;;;5097287;28;20032;-73
2020/12/10 03:11:05;;;;;;;3.60;1.90;;;153.70;1996.80;;;;;;5097259;28;20052;-73
2020/12/10 03:13:31;;;;;;;4.60;1.60;;;128.90;2022.40;;;;;;5098161;28;20031;-73
2020/12/10 03:15:57;;;;;;;4.45;1.70;;;128.70;2048.00;;;;;;5101429;28;20024;-72
2020/12/10 03:18:25;;;;;;;3.22;1.80;;;128.50;2073.60;;;;;;5101199;28;20101;-73
2020/12/10 03:20:51;;;;;;;3.80;1.80;;;128.30;2099.20;;;;;;5101373;28;20402;-73
2020/12/10 03:23:17;;;;;;;4.07;2.35;;;128.40;2099.20;;;;;;5101327;28;20028;-73
2020/12/10 03:25:43;;;;;;;3.58;1.92;;;128.50;2099.20;;;;;;5100466;28;20480;-72
2020/12/10 03:28:09;;;;;;;3.92;2.00;;;128.50;2099.20;;;;;;5101238;28;20051;-73
2020/12/10 03:30:34;;;;;;;4.07;2.20;;;128.50;2073.60;;;;;;5101474;28;20016;-73
2020/12/10 03:33:00;;;;;;;3.53;1.80;;;128.60;2073.60;;;;;;5100559;28;20024;-73
2020/12/10 03:35:26;;;;;;;3.63;2.40;;;128.60;2048.00;;;;;;5100808;28;20032;-72
2020/12/10 03:37:52;;;;;;;6.78;2.80;;;128.50;2048.00;;;;;;5101345;28;20027;-73
2020/12/10 03:40:18;;;;;;;7.32;2.97;;;128.30;2073.60;;;;;;5100765;28;20027;-72
2020/12/10 03:42:44;;;;;;;7.75;3.35;;;128.30;2073.60;;;;;;5101362;28;20056;-73
2020/12/10 03:45:10;;;;;;;11.25;4.20;;;128.20;2099.20;;;;;;5100604;28;20117;-73
2020/12/10 03:47:35;;;;;;;5.60;2.70;;;128.30;2073.60;;;;;;5100872;28;20318;-73
2020/12/10 03:50:02;;;;;;;6.68;3.10;;;128.30;2099.20;;;;;;5100825;28;20027;-72
2020/12/10 03:52:28;;;;;;;8.80;3.55;;;128.10;2124.80;;;;;;5100743;28;20031;-73
2020/12/10 03:54:54;;;;;;;6.00;2.90;;;128.20;2124.80;;;;;;5100406;28;20028;-73
2020/12/10 03:57:19;;;;;;;8.73;3.20;;;128.20;2099.20;;;;;;5100584;28;20028;-73
2020/12/10 03:59:45;;;;;;;6.15;3.72;;;128.10;2124.80;;;;;;5100947;28;20024;-73
2020/12/10 04:02:11;;;;;;;9.88;4.22;;;128.00;2150.40;;;;;;5100286;28;20028;-73
2020/12/10 04:04:37;;;;;;;8.55;4.45;;;128.00;2150.40;;;;;;5100835;28;20107;-73
2020/12/10 04:07:02;;;;;;;11.15;5.05;;;128.00;2150.40;;;;;;5100729;28;20024;-72
2020/12/10 04:09:28;;;;;;;10.43;5.05;;;103.30;2124.80;;;;;;5099879;28;20023;-73
2020/12/10 04:11:54;;;;;;;7.65;3.83;;;103.30;2124.80;;;;;;5100390;28;20024;-73
2020/12/10 04:14:20;;;;;;;4.68;2.45;;;103.30;2124.80;;;;;;5100275;28;20071;-73
2020/12/10 04:16:46;;;;;;;3.78;2.45;;;103.20;2124.80;;;;;;5100315;28;20107;-73
2020/12/10 04:19:11;;;;;;;4.32;2.38;;;103.20;2124.80;;;;;;5100182;28;20024;-73
2020/12/10 04:21:37;;;;;;;3.22;2.05;;;103.10;2150.40;;;;;;5100208;28;20054;-73
2020/12/10 04:24:03;;;;;;;3.40;1.90;;;103.30;2150.40;;;;;;5099837;28;20035;-73
2020/12/10 04:26:29;;;;;;;3.45;1.92;;;103.20;2150.40;;;;;;5099869;28;20117;-73
2020/12/10 04:28:55;;;;;;;4.47;2.70;;;103.20;2150.40;;;;;;5099828;28;20413;-73
2020/12/10 04:31:21;;;;;;;4.15;2.38;;;103.30;2150.40;;;;;;5100344;28;20035;-73
2020/12/10 04:33:46;;;;;;;3.58;2.08;;;103.30;2150.40;;;;;;5100227;28;20324;-72
2020/12/10 04:36:12;;;;;;;4.63;2.33;;;103.30;2176.00;;;;;;5099961;28;20306;-73
2020/12/10 04:38:38;;;;;;;6.47;2.40;;;103.20;2176.00;;;;;;5100202;28;20073;-73
2020/12/10 04:41:06;;;;;;;4.15;2.20;;;103.20;2176.00;;;;;;5099592;28;20056;-72
2020/12/10 04:43:32;;;;;;;5.28;2.40;;;103.10;2150.40;;;;;;5099578;28;20024;-72
2020/12/10 04:46:02;;;;;;;4.43;1.85;;;103.30;2176.00;;;;;;5099436;28;20039;-72
2020/12/10 04:48:30;;;;;;;5.30;2.28;;;103.20;2176.00;;;;;;5099745;28;20038;-73
2020/12/10 04:50:57;;;;;;;4.25;2.40;;;103.20;2176.00;;;;;;5099395;28;20034;-72
2020/12/10 04:53:25;;;;;;;4.15;2.30;;;103.20;2176.00;;;;;;5081397;28;20031;-73
2020/12/10 04:56:03;;;;;;;4.93;3.10;;;103.20;2176.00;;;;;;5099825;28;20035;-72
2020/12/10 04:58:29;;;;;;;5.10;2.70;;;103.30;2176.00;;;;;;5099546;28;20050;-73
2020/12/10 05:01:02;;;;;;;3.40;2.20;;;103.20;2176.00;;;;;;5099506;28;20056;-73
2020/12/10 05:03:29;;;;;;;3.60;2.03;;;103.20;2176.00;;;;;;5099149;28;20040;-72
2020/12/10 05:06:08;;;;;;;3.85;2.15;;;103.20;2201.60;;;;;;5099369;28;20103;-73
2020/12/10 05:08:34;;;;;;;3.85;1.92;;;103.10;2227.20;;;;;;5081685;28;20115;-72
2020/12/10 05:11:00;;;;;;;4.85;2.10;;;103.10;2201.60;;;;;;5099276;28;20421;-72
2020/12/10 05:13:26;;;;;;;4.07;2.20;;;103.10;2201.60;;;;;;5099478;28;20335;-73
2020/12/10 05:15:52;;;;;;;3.47;1.85;;;103.20;2201.60;;;;;;5099136;28;20027;-72
2020/12/10 05:18:19;;;;;;;4.05;2.10;;;103.20;2201.60;;;;;;5098531;28;20028;-73
2020/12/10 05:20:50;;;;;;;3.75;2.05;;;103.30;2176.00;;;;;;5098735;28;20028;-73
2020/12/10 05:23:35;;;;;;;3.10;1.80;;;103.20;2176.00;;;;;;5099049;28;20024;-73
2020/12/10 05:26:02;;;;;;;3.90;2.05;;;103.30;2150.40;;;;;;5098393;28;20024;-73
2020/12/10 05:28:39;;;;;;;3.28;1.95;;;103.30;2150.40;;;;;;5098879;28;20028;-73
2020/12/10 05:31:07;;;;;;;3.50;1.90;;;128.00;2176.00;;;;;;5099244;28;20027;-73
2020/12/10 05:33:34;;;;;;;3.78;2.15;;;128.00;2150.40;;;;;;5098218;28;20016;-73
2020/12/10 05:36:06;;;;;;;3.95;2.22;;;103.30;2150.40;;;;;;5098214;28;20032;-73
2020/12/10 05:38:32;;;;;;;4.28;2.40;;;103.30;2124.80;;;;;;5098737;28;20426;-73
2020/12/10 05:41:20;;;;;;;4.93;2.58;;;103.30;2124.80;;;;;;5098421;28;20044;-72
2020/12/10 05:43:47;;;;;;;6.60;2.75;;;128.00;2150.40;;;;;;5098965;28;20027;-73
2020/12/10 05:46:20;;;;;;;5.40;2.20;;;128.00;2176.00;;;;;;5098596;28;20077;-73
2020/12/10 05:48:48;;;;;;;9.43;2.35;;;103.30;2176.00;;;;;;5098562;28;20028;-73
2020/12/10 05:51:22;;;;;;;5.25;2.30;;;128.00;2150.40;;;;;;5098775;28;20020;-73
2020/12/10 05:53:50;;;;;;;5.47;2.53;;;103.30;2150.40;;;;;;5098112;28;20126;-73
2020/12/10 05:56:18;;;;;;;11.75;5.25;;;103.20;2150.40;;;;;;5098647;28;20023;-73
2020/12/10 05:58:53;;;;;;;12.07;5.07;;;128.10;2150.40;;;;;;5098148;28;20023;-72
2020/12/10 06:01:34;;;;;;;12.65;5.32;;;128.00;2150.40;;;;;;5098172;28;20020;-73
2020/12/10 06:04:01;;;;;;;16.25;6.72;;;128.10;2150.40;;;;;;5097900;28;20081;-73
2020/12/10 06:06:29;;;;;;;67.68;37.47;;;128.30;2124.80;;;;;;5098237;28;20111;-73
2020/12/10 06:09:03;;;;;;;12.18;6.47;;;128.10;2124.80;;;;;;5098405;28;20028;-73
2020/12/10 06:11:30;;;;;;;10.02;5.00;;;128.40;2124.80;;;;;;5097741;28;20051;-73
2020/12/10 06:14:06;;;;;;;7.10;3.33;;;128.30;2099.20;;;;;;5097444;28;20430;-73
2020/12/10 06:16:34;;;;;;;6.93;3.10;;;128.20;2124.80;;;;;;5098054;28;20051;-73
2020/12/10 06:19:10;;;;;;;10.18;4.00;;;128.00;2124.80;;;;;;5098278;28;20028;-73
2020/12/10 06:21:45;;;;;;;13.48;7.75;;;128.20;2124.80;;;;;;5097725;28;20020;-73
2020/12/10 06:24:26;;;;;;;16.33;6.85;;;128.40;2099.20;;;;;;5098263;28;20148;-73
2020/12/10 06:26:52;;;;;;;41.33;15.48;;;128.70;2073.60;;;;;;5097809;28;20024;-73
2020/12/10 06:29:20;;;;;;;11.75;6.22;;;128.60;2073.60;;;;;;5097047;28;20134;-73
2020/12/10 06:32:09;;;;;;;46.03;23.65;;;128.20;2099.20;;;;;;5097499;28;20331;-73
2020/12/10 06:34:43;;;;;;;11.23;7.05;;;128.20;2099.20;;;;;;5097719;28;20036;-74
2020/12/10 06:37:13;;;;;;;9.68;5.60;;;128.00;2124.80;;;;;;5097960;28;20028;-74
2020/12/10 06:39:39;;;;;;;8.88;5.93;;;103.20;2124.80;;;;;;5097620;28;20463;-74
2020/12/10 06:42:05;;;;;;;11.18;5.35;;;103.10;2124.80;;;;;;5097322;28;20059;-75
2020/12/10 06:44:32;;;;;;;10.88;6.55;;;128.10;2124.80;;;;;;5097908;28;20386;-74
2020/12/10 06:46:58;;;;;;;20.77;14.40;;;128.40;2099.20;;;;;;5097551;28;20031;-74
2020/12/10 06:49:36;;;;;;;10.00;6.28;;;128.50;2099.20;;;;;;5096450;28;20106;-74
2020/12/10 06:52:18;;;;;;;9.38;5.03;;;128.60;2099.20;;;;;;5093979;28;20308;-74
2020/12/10 06:55:11;;;;;;;6.43;4.03;;;128.50;2099.20;;;;;;5096640;28;20063;-78
2020/12/10 06:58:12;;;;;;;8.07;3.60;;;128.30;2150.40;;;;;;5096343;28;20438;-75
2020/12/10 07:00:39;;;;;;;5.38;2.83;;;128.50;2124.80;;;;;;5097095;28;20167;-74
2020/12/10 07:03:10;;;;;;;8.02;3.17;;;128.40;2150.40;;;;;;5096904;28;20055;-74
2020/12/10 07:05:37;;;;;;;4.75;3.40;;;128.50;2150.40;;;;;;5096506;28;20446;-74
2020/12/10 07:08:09;;;;;;;4.70;3.10;;;128.30;2150.40;;;;;;5097124;28;20024;-74
2020/12/10 07:10:41;;;;;;;5.35;3.03;;;128.40;2176.00;;;;;;5097208;28;20024;-74
2020/12/10 07:13:07;;;;;;;5.40;3.40;;;128.40;2124.80;;;;;;5097317;28;20031;-74
2020/12/10 07:15:33;;;;;;;7.95;4.65;;;128.10;2176.00;;;;;;5096148;28;20492;-74
2020/12/10 07:18:01;;;;;;;9.95;3.60;;;128.00;2176.00;;;;;;5096747;28;20051;-75
2020/12/10 07:20:28;;;;;;;10.32;5.93;;;103.30;2176.00;;;;;;5097027;28;20051;-74
2020/12/10 07:22:54;;;;;;;11.07;5.00;;;128.00;2201.60;;;;;;5096549;28;20027;-75
2020/12/10 07:25:23;;;;;;;8.68;5.05;;;128.00;2176.00;;;;;;5096713;28;20393;-73
2020/12/10 07:27:49;;;;;;;15.85;6.97;;;128.10;2176.00;;;;;;5097008;28;20024;-74
2020/12/10 07:30:17;;;;;;;17.30;5.75;;;128.10;2176.00;;;;;;5096889;28;20343;-74
2020/12/10 07:32:44;;;;;;;8.03;4.67;;;128.30;2150.40;;;;;;5096480;28;20020;-73
2020/12/10 07:35:11;;;;;;;11.85;4.60;;;128.20;2176.00;;;;;;5096466;28;20060;-74
2020/12/10 07:37:38;;;;;;;9.07;5.10;;;128.20;2176.00;;;;;;5095689;28;20036;-73
2020/12/10 07:40:15;;;;;;;8.35;4.72;;;128.30;2176.00;;;;;;5097013;28;20361;-73
2020/12/10 07:42:42;;;;;;;10.05;4.90;;;128.20;2150.40;;;;;;5095936;28;20040;-73
2020/12/10 07:45:15;;;;;;;6.93;4.15;;;128.10;2176.00;;;;;;5094861;28;20028;-73
2020/12/10 07:47:42;;;;;;;13.73;4.97;;;128.20;2150.40;;;;;;5093237;28;20024;-73
2020/12/10 07:50:23;;;;;;;10.13;5.28;;;128.20;2150.40;;;;;;5094629;28;20024;-72
2020/12/10 07:52:50;;;;;;;8.15;4.15;;;128.40;2150.40;;;;;;5094209;28;20022;-72
2020/12/10 07:55:27;;;;;;;9.20;4.13;;;128.60;2150.40;;;;;;5093384;28;20031;-72
2020/12/10 07:58:00;;;;;;;11.43;3.72;;;128.90;2099.20;;;;;;5097033;28;20055;-72
2020/12/10 08:00:29;;;;;;;9.57;4.47;;;153.70;2073.60;;;;;;5099031;28;20059;-73
2020/12/10 08:03:07;;;;;;;11.95;6.05;;;153.90;2073.60;;;;;;5100208;28;20022;-71
2020/12/10 08:05:34;;;;;;;10.43;4.30;;;153.90;2073.60;;;;;;5099435;28;20107;-71
2020/12/10 08:08:00;;;;;;;7.55;4.13;;;154.00;2048.00;;;;;;5099235;28;20099;-71
2020/12/10 08:10:33;;;;;;;4.90;3.35;;;153.90;2048.00;;;;;;5098566;28;20020;-72
2020/12/10 08:13:18;;;;;;;31.73;17.45;;;154.00;2048.00;;;;;;5096655;28;20445;-73
2020/12/10 08:15:46;;;;;;;20.73;14.00;;;154.00;2048.00;;;;;;5097280;28;20132;-73
2020/12/10 08:18:15;;;;;;;14.40;8.60;;;154.20;2022.40;;;;;;5098388;28;20338;-74
2020/12/10 08:20:45;;;;;;;12.60;5.60;;;154.40;2022.40;;;;;;5097800;28;20024;-72
2020/12/10 08:23:12;;;;;;;11.20;5.25;;;179.20;1971.20;;;;;;5096611;28;20031;-73
2020/12/10 08:25:39;;;;;;;15.23;6.15;;;179.30;2022.40;;;;;;5098231;28;20024;-72
2020/12/10 08:28:09;;;;;;;9.45;5.55;;;179.40;1996.80;;;;;;5095807;28;20020;-73
2020/12/10 08:30:36;;;;;;;12.98;5.65;;;179.30;1971.20;;;;;;5100249;28;20065;-73
2020/12/10 08:33:03;;;;;;;12.27;5.60;;;154.50;1996.80;;;;;;5099453;28;20020;-72
2020/12/10 08:35:40;;;;;;;11.85;5.22;;;154.50;1996.80;;;;;;5097796;28;20123;-73
2020/12/10 08:38:06;;;;;;;5.45;3.13;;;154.50;1996.80;;;;;;5099665;28;20111;-73
2020/12/10 08:40:32;;;;;;;7.20;4.18;;;179.30;1971.20;;;;;;5097311;28;20099;-73
2020/12/10 08:43:17;;;;;;;7.57;3.83;;;179.50;1996.80;;;;;;5097959;28;20422;-73
2020/12/10 08:45:51;;;;;;;10.57;6.90;;;179.70;1945.60;;;;;;5078951;28;20033;-74
2020/12/10 08:48:26;;;;;;;13.98;9.77;;;179.50;1971.20;;;;;;5078031;28;20035;-74
2020/12/10 08:50:57;;;;;;;8.38;4.38;;;179.70;1945.60;;;;;;5079590;28;20020;-74
2020/12/10 08:53:23;;;;;;;10.25;7.38;;;179.40;1945.60;;;;;;5078960;28;20090;-74
2020/12/10 08:55:55;;;;;;;8.68;4.82;;;179.20;1996.80;;;;;;5060786;28;20032;-74
2020/12/10 08:58:23;;;;;;;15.05;8.55;;;179.50;1945.60;;;;;;5078625;28;20021;-74
2020/12/10 09:00:50;;;;;;;11.93;5.90;;;179.30;1971.20;;;;;;5079341;28;20101;-74
2020/12/10 09:03:17;;;;;;;8.52;5.07;;;179.20;1996.80;;;;;;5091103;28;20057;-73
2020/12/10 09:05:44;;;;;;;20.63;10.38;;;179.50;1971.20;;;;;;5098580;28;20032;-73
2020/12/10 09:08:10;;;;;;;118.53;48.42;;;179.60;1945.60;;;;;;5099488;28;20024;-74
2020/12/10 09:10:36;;;;;;;58.80;25.17;;;179.90;1945.60;;;;;;5097866;28;20023;-74
2020/12/10 09:13:02;;;;;;;128.90;61.20;;;180.10;1920.00;;;;;;5098683;28;20319;-73
2020/12/10 09:15:29;;;;;;;17.52;8.80;;;180.00;1945.60;;;;;;5098216;28;20493;-72
2020/12/10 09:17:55;;;;;;;19.05;9.00;;;204.90;1920.00;;;;;;5098963;28;20027;-75
2020/12/10 09:20:21;;;;;;;18.83;6.75;;;205.10;1894.40;;;;;;5098704;28;20078;-72
2020/12/10 09:22:47;;;;;;;25.50;15.27;;;205.00;1894.40;;;;;;5098933;28;20032;-73
2020/12/10 09:25:13;;;;;;;46.80;19.95;;;204.90;1920.00;;;;;;5098590;28;20032;-73
2020/12/10 09:27:39;;;;;;;21.05;14.05;;;205.40;1868.80;;;;;;5098667;28;20480;-73
2020/12/10 09:30:07;;;;;;;27.67;16.05;;;205.60;1868.80;;;;;;5098419;28;20031;-73
2020/12/10 09:32:34;;;;;;;10.00;4.97;;;205.50;1843.20;;;;;;5099000;28;20304;-73
2020/12/10 09:35:06;;;;;;;11.98;5.50;;;205.10;1868.80;;;;;;5098521;28;20123;-73
2020/12/10 09:37:34;;;;;;;8.27;4.80;;;180.10;1920.00;;;;;;5098523;28;20024;-73
2020/12/10 09:40:00;;;;;;;7.20;3.47;;;204.80;1920.00;;;;;;5098331;28;20071;-73
2020/12/10 09:42:27;;;;;;;6.13;3.33;;;204.90;1920.00;;;;;;5098554;28;20059;-73
2020/12/10 09:44:53;;;;;;;5.85;3.47;;;204.90;1920.00;;;;;;5097059;28;20028;-73
2020/12/10 09:47:19;;;;;;;6.47;4.57;;;204.90;1894.40;;;;;;5080090;28;20119;-73
2020/12/10 09:49:45;;;;;;;12.40;8.07;;;204.90;1894.40;;;;;;5098102;28;20032;-73
2020/12/10 09:52:12;;;;;;;11.45;5.95;;;204.80;1920.00;;;;;;5097925;28;20304;-73
2020/12/10 09:57:09;;;;;;;20.88;6.93;;;204.90;1945.60;;;;;;5096010;28;20114;-73
2020/12/10 09:59:37;;;;;;;34.58;19.55;;;204.90;1996.80;;;;;;5097663;28;20315;-73
2020/12/10 10:02:04;;;;;;;15.43;8.55;;;204.80;1971.20;;;;;;5097471;28;20066;-73
2020/12/10 10:04:30;;;;;;;11.38;7.43;;;204.80;1971.20;;;;;;5097820;28;20069;-73
2020/12/10 10:06:56;;;;;;;10.82;5.30;;;205.00;1945.60;;;;;;5097751;28;20051;-73
2020/12/10 10:09:24;;;;;;;10.55;5.43;;;205.10;1945.60;;;;;;5097673;28;20433;-73
2020/12/10 10:11:51;;;;;;;11.60;4.35;;;205.10;1945.60;;;;;;5097772;28;20031;-73
2020/12/10 10:14:17;;;;;;;14.77;6.13;;;205.10;1971.20;;;;;;5097845;28;20143;-73
2020/12/10 10:16:43;;;;;;;14.57;7.88;;;205.10;1971.20;;;;;;5097939;28;20102;-72
2020/12/10 10:19:09;;;;;;;15.75;6.90;;;205.40;1945.60;;;;;;5097836;28;20024;-73
2020/12/10 10:21:35;;;;;;;11.32;6.45;;;205.50;1920.00;;;;;;5097261;28;20028;-72
2020/12/10 10:24:00;;;;;;;10.40;4.57;;;205.70;1920.00;;;;;;5097720;28;20031;-73
2020/12/10 10:26:26;;;;;;;13.10;6.10;;;205.70;1894.40;;;;;;5096784;28;20364;-73
2020/12/10 10:28:54;;;;;;;14.38;6.10;;;230.40;1920.00;;;;;;5093229;28;20020;-73
2020/12/10 10:31:20;;;;;;;34.58;11.50;;;230.50;1894.40;;;;;;5097410;28;20039;-74
2020/12/10 10:33:46;;;;;;;39.03;14.45;;;230.60;1894.40;;;;;;5096605;28;20076;-74
2020/12/10 10:36:13;;;;;;;43.88;16.15;;;230.60;1868.80;;;;;;5096523;28;20024;-74
2020/12/10 10:38:39;;;;;;;72.05;31.30;;;230.90;1868.80;;;;;;5078073;28;20407;-74
2020/12/10 10:41:05;;;;;;;28.30;8.63;;;231.30;1843.20;;;;;;5095564;28;20055;-74
2020/12/10 10:43:30;;;;;;;33.80;15.85;;;256.00;1817.60;;;;;;5097306;28;20027;-74
2020/12/10 10:45:56;;;;;;;23.83;11.98;;;256.40;1817.60;;;;;;5079180;28;20047;-74
2020/12/10 10:48:22;;;;;;;84.43;40.53;;;256.40;1792.00;;;;;;5096833;28;20422;-74
2020/12/10 10:50:48;;;;;;;49.92;24.50;;;256.50;1792.00;;;;;;5097591;28;20028;-73
2020/12/10 10:53:14;;;;;;;19.45;8.85;;;256.80;1792.00;;;;;;5072838;28;20073;-73
2020/12/10 10:55:40;;;;;;;45.80;22.25;;;281.80;1792.00;;;;;;5078289;28;20048;-73
2020/12/10 10:58:05;;;;;;;15.18;7.93;;;281.90;1740.80;;;;;;5096309;28;20483;-73
2020/12/10 11:00:32;;;;;;;18.60;9.38;;;282.30;1715.20;;;;;;5096174;28;20069;-73
2020/12/10 11:02:57;;;;;;;9.38;4.35;;;307.30;1740.80;;;;;;5096894;28;20027;-74
2020/12/10 11:05:23;;;;;;;15.90;11.98;;;307.90;1715.20;;;;;;5096496;28;20034;-74
2020/12/10 11:07:49;;;;;;;7.47;3.03;;;333.00;1689.60;;;;;;5096782;28;20427;-74
2020/12/10 11:10:21;;;;;;;8.02;3.10;;;333.00;1664.00;;;;;;5096930;28;20059;-74
2020/12/10 11:12:48;;;;;;;5.53;2.72;;;332.80;1638.40;;;;;;5097065;28;20028;-73
2020/12/10 11:15:14;;;;;;;7.82;3.45;;;332.90;1638.40;;;;;;5096797;28;20039;-72
2020/12/10 11:17:39;;;;;;;6.65;3.13;;;332.80;1664.00;;;;;;5096942;28;20077;-73
2020/12/10 11:20:06;;;;;;;7.53;3.47;;;308.10;1638.40;;;;;;5097086;28;20102;-73
2020/12/10 11:22:35;;;;;;;5.88;3.10;;;308.00;1638.40;;;;;;5094968;28;20031;-72
2020/12/10 11:25:01;;;;;;;8.27;4.47;;;307.80;1638.40;;;;;;5095480;28;20032;-73
2020/12/10 11:27:30;;;;;;;8.82;3.67;;;308.10;1612.80;;;;;;5096455;28;20036;-73
2020/12/10 11:29:57;;;;;;;8.48;3.83;;;333.00;1587.20;;;;;;5096868;28;20322;-73
2020/12/10 11:32:23;;;;;;;8.45;3.97;;;333.10;1587.20;;;;;;5096843;28;20058;-71
2020/12/10 11:34:49;;;;;;;8.43;4.70;;;358.40;1536.00;;;;;;5098517;28;20028;-74
2020/12/10 11:37:15;;;;;;;10.95;5.50;;;333.60;1536.00;;;;;;5100698;28;20028;-72
2020/12/10 11:39:41;;;;;;;11.38;4.05;;;358.40;1510.40;;;;;;5099883;28;20032;-74
2020/12/10 11:42:07;;;;;;;4.97;3.50;;;358.50;1510.40;;;;;;5100803;28;20512;-72
2020/12/10 11:44:33;;;;;;;7.15;3.90;;;359.10;1459.20;;;;;;5100814;28;20429;-73
2020/12/10 11:46:58;;;;;;;6.72;3.97;;;359.20;1433.60;;;;;;5100755;28;20028;-73
2020/12/10 11:49:25;;;;;;;14.77;3.70;;;384.20;1433.60;;;;;;5099759;28;20423;-72
2020/12/10 11:51:51;;;;;;;8.48;3.47;;;359.00;1433.60;;;;;;5099969;28;20020;-72
2020/12/10 11:54:16;;;;;;;6.88;4.25;;;359.10;1408.00;;;;;;5100296;28;20043;-72
2020/12/10 11:56:42;;;;;;;8.65;4.00;;;359.30;1433.60;;;;;;5100040;28;20390;-72
2020/12/10 11:59:08;;;;;;;14.02;3.00;;;384.20;1408.00;;;;;;5099691;28;20028;-72
2020/12/10 12:01:37;;;;;;;8.55;4.07;;;384.60;1356.80;;;;;;5099058;28;20411;-72
2020/12/10 12:04:03;;;;;;;;;;;384.70;1356.80;;;;;;5100644;28;20024;-72
2020/12/10 12:06:28;;;;;;;9.27;4.57;;;384.50;1356.80;;;;;;5100742;28;20038;-72
2020/12/10 12:08:54;;;;;;;10.57;4.80;;;384.80;1331.20;;;;;;5100712;28;20311;-73
2020/12/10 12:11:24;;;;;;;13.65;5.63;;;409.60;1356.80;;;;;;5099456;28;20031;-72
2020/12/10 12:13:51;;;;;;;11.70;5.70;;;409.90;1331.20;;;;;;5100062;28;20024;-73
2020/12/10 12:16:18;;;;;;;11.63;6.03;;;410.10;1280.00;;;;;;5100268;28;20303;-72
2020/12/10 12:18:44;;;;;;;12.18;5.60;;;410.20;1305.60;;;;;;5099669;28;20015;-72